Time;durP1;ratioP1;P1;durP2;ratioP2;P2;SDS_P1;SDS_P2;PMS_P1;PMS_P2;Temp;Humidity;BMP_temperature;BMP_pressure;BME280_temperature;BME280_humidity;BME280_pressure;Samples;Min_cycle;Max_cycle;Signal;HPM_P1;HPM_P2
2022/07/26 00:01:18;;;;;;;3.10;1.30;;;;;;;;;;105046;1302;22531;-27
2022/07/26 00:03:48;;;;;;;7.90;1.80;;;;;;;;;;105012;1302;25200;-24
2022/07/26 00:06:16;;;;;;;3.20;1.70;;;;;;;;;;104965;1305;26472;-24
2022/07/26 00:08:45;;;;;;;1.80;1.10;;;;;;;;;;105254;1302;25232;-27
2022/07/26 00:11:14;;;;;;;2.70;1.70;;;;;;;;;;104970;1308;22523;-27
2022/07/26 00:13:43;;;;;;;3.40;1.30;;;;;;;;;;105054;1302;22520;-25
2022/07/26 00:16:12;;;;;;;2.30;1.60;;;;;;;;;;105096;1308;25203;-28
2022/07/26 00:18:41;;;;;;;2.50;1.70;;;;;;;;;;104959;1296;25241;-24
2022/07/26 00:21:10;;;;;;;1.80;1.60;;;;;;;;;;104974;1308;24398;-28
2022/07/26 00:23:39;;;;;;;2.30;2.00;;;;;;;;;;105103;1302;25200;-29
2022/07/26 00:26:07;;;;;;;2.70;1.80;;;;;;;;;;105273;1308;22526;-28
2022/07/26 00:28:36;;;;;;;11.40;2.00;;;;;;;;;;105149;1308;24423;-28
2022/07/26 00:31:05;;;;;;;5.60;1.40;;;;;;;;;;105056;1308;25200;-30
2022/07/26 00:33:34;;;;;;;1.60;1.40;;;;;;;;;;105261;1308;22523;-29
2022/07/26 00:36:03;;;;;;;2.10;1.80;;;;;;;;;;105118;1302;25232;-28
2022/07/26 00:38:32;;;;;;;2.40;1.50;;;;;;;;;;105065;1299;25245;-28
2022/07/26 00:41:01;;;;;;;1.90;1.50;;;;;;;;;;105153;1308;24452;-28
2022/07/26 00:43:29;;;;;;;1.80;1.70;;;;;;;;;;105061;1306;25244;-28
2022/07/26 00:45:58;;;;;;;5.30;1.90;;;;;;;;;;105266;1308;25207;-28
2022/07/26 00:48:27;;;;;;;2.70;1.30;;;;;;;;;;105154;1302;25281;-28
2022/07/26 00:50:56;;;;;;;8.30;2.40;;;;;;;;;;105163;1308;22467;-25
2022/07/26 00:53:25;;;;;;;1.10;1.00;;;;;;;;;;104951;1302;24480;-23
2022/07/26 00:55:54;;;;;;;2.20;1.70;;;;;;;;;;105070;1305;22543;-25
2022/07/26 00:58:22;;;;;;;7.70;1.80;;;;;;;;;;105146;1305;25287;-25
2022/07/26 01:00:51;;;;;;;2.30;1.70;;;;;;;;;;105160;1308;22536;-30
2022/07/26 01:03:20;;;;;;;3.80;1.80;;;;;;;;;;105231;1302;22552;-24
2022/07/26 01:05:49;;;;;;;1.70;1.20;;;;;;;;;;105156;1308;25244;-30
2022/07/26 01:08:18;;;;;;;3.10;1.60;;;;;;;;;;105036;1308;24907;-24
2022/07/26 01:10:47;;;;;;;5.80;2.30;;;;;;;;;;105021;1308;25452;-25
2022/07/26 01:13:18;;;;;;;3.20;1.80;;;;;;;;;;105093;1308;25627;-28
2022/07/26 01:15:47;;;;;;;2.10;1.50;;;;;;;;;;105176;1302;22523;-29
2022/07/26 01:18:16;;;;;;;4.70;1.80;;;;;;;;;;104962;1308;25267;-28
2022/07/26 01:20:45;;;;;;;2.90;1.60;;;;;;;;;;105174;1308;25207;-27
2022/07/26 01:23:13;;;;;;;2.30;1.90;;;;;;;;;;105147;1302;24792;-28
2022/07/26 01:25:42;;;;;;;15.60;1.80;;;;;;;;;;105080;1308;25244;-30
2022/07/26 01:28:11;;;;;;;5.70;2.20;;;;;;;;;;105253;1302;22531;-28
2022/07/26 01:30:40;;;;;;;2.80;2.40;;;;;;;;;;105089;1308;25305;-28
2022/07/26 01:33:09;;;;;;;4.80;2.20;;;;;;;;;;105159;1294;22532;-28
2022/07/26 01:35:38;;;;;;;1.70;1.30;;;;;;;;;;105116;1308;25232;-30
2022/07/26 01:38:15;;;;;;;2.00;1.50;;;;;;;;;;105314;1308;25229;-30
2022/07/26 01:40:52;;;;;;;2.20;1.70;;;;;;;;;;105015;1308;25225;-30
2022/07/26 01:43:21;;;;;;;8.30;2.50;;;;;;;;;;105025;1302;22533;-28
2022/07/26 01:45:50;;;;;;;2.60;1.80;;;;;;;;;;105281;1308;22529;-30
2022/07/26 01:48:19;;;;;;;3.90;2.00;;;;;;;;;;105180;1303;22519;-26
2022/07/26 01:50:48;;;;;;;3.10;1.70;;;;;;;;;;105031;1308;22533;-24
2022/07/26 01:53:25;;;;;;;2.40;2.10;;;;;;;;;;104944;1308;22525;-24
2022/07/26 01:56:02;;;;;;;2.10;1.80;;;;;;;;;;105052;1302;25167;-28
2022/07/26 01:58:32;;;;;;;2.80;1.80;;;;;;;;;;105229;1308;22713;-28
2022/07/26 02:01:00;;;;;;;4.60;2.80;;;;;;;;;;105300;1302;24804;-25
2022/07/26 02:03:29;;;;;;;3.10;1.70;;;;;;;;;;105133;1303;22543;-28
2022/07/26 02:05:58;;;;;;;12.60;2.30;;;;;;;;;;105117;1308;22517;-28
2022/07/26 02:08:27;;;;;;;4.90;2.60;;;;;;;;;;105088;1301;22506;-29
2022/07/26 02:11:04;;;;;;;2.40;1.80;;;;;;;;;;105229;1308;22520;-28
2022/07/26 02:13:34;;;;;;;7.60;2.10;;;;;;;;;;105086;1302;22532;-24
2022/07/26 02:16:03;;;;;;;3.70;2.40;;;;;;;;;;105015;1308;22542;-28
2022/07/26 02:18:32;;;;;;;2.80;2.10;;;;;;;;;;105182;1302;22556;-24
2022/07/26 02:21:01;;;;;;;3.20;2.90;;;;;;;;;;105207;1308;25277;-28
2022/07/26 02:23:31;;;;;;;2.70;2.30;;;;;;;;;;105052;1302;25241;-24
2022/07/26 02:26:00;;;;;;;3.00;1.70;;;;;;;;;;105065;1307;24818;-26
2022/07/26 02:28:29;;;;;;;2.70;2.20;;;;;;;;;;105035;1302;22540;-25
2022/07/26 02:30:58;;;;;;;2.40;2.10;;;;;;;;;;105164;1308;22620;-26
2022/07/26 02:33:27;;;;;;;3.30;2.30;;;;;;;;;;104877;1303;24423;-30
2022/07/26 02:35:56;;;;;;;3.20;2.10;;;;;;;;;;105215;1308;25343;-25
2022/07/26 02:38:24;;;;;;;2.20;1.70;;;;;;;;;;104916;1302;25261;-28
2022/07/26 02:40:53;;;;;;;1.90;1.70;;;;;;;;;;105125;1308;25425;-24
2022/07/26 02:43:22;;;;;;;5.80;2.20;;;;;;;;;;105117;1302;24233;-25
2022/07/26 02:45:51;;;;;;;4.40;2.30;;;;;;;;;;105100;1308;25242;-25
2022/07/26 02:48:20;;;;;;;2.90;2.20;;;;;;;;;;105040;1308;24864;-24
2022/07/26 02:50:48;;;;;;;4.30;2.50;;;;;;;;;;104821;1308;25305;-26
2022/07/26 02:53:17;;;;;;;2.70;1.70;;;;;;;;;;105072;1308;25261;-30
2022/07/26 02:55:55;;;;;;;2.80;1.90;;;;;;;;;;105029;1295;24341;-28
2022/07/26 02:58:25;;;;;;;3.90;2.70;;;;;;;;;;105143;1302;25241;-25
2022/07/26 03:00:54;;;;;;;4.40;2.10;;;;;;;;;;104952;1302;25214;-29
2022/07/26 03:03:23;;;;;;;3.80;2.60;;;;;;;;;;105206;1302;24598;-29
2022/07/26 03:05:52;;;;;;;5.30;2.20;;;;;;;;;;105214;1308;22739;-28
2022/07/26 03:08:21;;;;;;;3.80;2.60;;;;;;;;;;105087;1302;22623;-28
2022/07/26 03:10:50;;;;;;;4.00;1.90;;;;;;;;;;105152;1308;24797;-28
2022/07/26 03:13:19;;;;;;;3.20;2.40;;;;;;;;;;105162;1301;25394;-24
2022/07/26 03:15:48;;;;;;;3.50;1.80;;;;;;;;;;105166;1308;25238;-28
2022/07/26 03:18:16;;;;;;;4.90;2.60;;;;;;;;;;104994;1308;25282;-28
2022/07/26 03:20:45;;;;;;;6.10;2.40;;;;;;;;;;105055;1308;24446;-26
2022/07/26 03:23:14;;;;;;;10.10;2.40;;;;;;;;;;105046;1308;25241;-28
2022/07/26 03:25:43;;;;;;;3.00;2.50;;;;;;;;;;105031;1308;25303;-28
2022/07/26 03:28:12;;;;;;;4.60;2.50;;;;;;;;;;105087;1308;24953;-28
2022/07/26 03:30:41;;;;;;;4.50;2.70;;;;;;;;;;105198;1308;25404;-24
2022/07/26 03:33:10;;;;;;;6.40;2.70;;;;;;;;;;105140;1302;24820;-28
2022/07/26 03:35:38;;;;;;;3.60;2.20;;;;;;;;;;105044;1307;25238;-25
2022/07/26 03:38:07;;;;;;;3.80;2.40;;;;;;;;;;105119;1302;25423;-25
2022/07/26 03:40:36;;;;;;;3.30;2.90;;;;;;;;;;105068;1302;22817;-25
2022/07/26 03:43:05;;;;;;;3.10;2.20;;;;;;;;;;105001;1302;24729;-29
2022/07/26 03:45:34;;;;;;;4.00;2.90;;;;;;;;;;105059;1308;25219;-28
2022/07/26 03:48:03;;;;;;;4.20;2.60;;;;;;;;;;105132;1302;25331;-26
2022/07/26 03:50:31;;;;;;;4.40;2.20;;;;;;;;;;105169;1308;22523;-24
2022/07/26 03:53:00;;;;;;;4.00;2.40;;;;;;;;;;105126;1302;22529;-24
2022/07/26 03:58:01;;;;;;;5.20;2.80;;;;;;;;;;105143;1302;25263;-28
2022/07/26 04:00:30;;;;;;;4.70;2.60;;;;;;;;;;105129;1308;25217;-28
2022/07/26 04:02:59;;;;;;;5.60;2.60;;;;;;;;;;105080;1302;22516;-28
2022/07/26 04:05:36;;;;;;;2.80;2.10;;;;;;;;;;105178;1308;22525;-25
2022/07/26 04:08:14;;;;;;;8.50;2.70;;;;;;;;;;104813;1308;25247;-25
2022/07/26 04:10:44;;;;;;;4.10;2.30;;;;;;;;;;105172;1308;25180;-25
2022/07/26 04:13:12;;;;;;;3.80;2.80;;;;;;;;;;105052;1308;25245;-25
2022/07/26 04:15:41;;;;;;;3.70;2.80;;;;;;;;;;104895;1308;22456;-25
2022/07/26 04:18:10;;;;;;;2.40;2.00;;;;;;;;;;105038;1302;22521;-24
2022/07/26 04:20:39;;;;;;;14.80;2.50;;;;;;;;;;105107;1308;22987;-31
2022/07/26 04:23:08;;;;;;;7.50;2.10;;;;;;;;;;105148;1302;22516;-23
2022/07/26 04:25:37;;;;;;;3.00;2.20;;;;;;;;;;105062;1308;25242;-24
2022/07/26 04:28:06;;;;;;;2.50;2.10;;;;;;;;;;105106;1302;25265;-24
2022/07/26 04:30:34;;;;;;;3.30;2.00;;;;;;;;;;105072;1308;22520;-25
2022/07/26 04:33:03;;;;;;;5.10;2.60;;;;;;;;;;105125;1302;25221;-24
2022/07/26 04:35:32;;;;;;;4.80;1.90;;;;;;;;;;105117;1308;22527;-26
2022/07/26 04:38:02;;;;;;;4.30;2.50;;;;;;;;;;105195;1302;24871;-28
2022/07/26 04:40:32;;;;;;;3.80;2.60;;;;;;;;;;105049;1302;25305;-28
2022/07/26 04:43:01;;;;;;;4.20;3.20;;;;;;;;;;105021;1302;24522;-30
2022/07/26 04:45:30;;;;;;;6.90;3.70;;;;;;;;;;105073;1308;25273;-29
2022/07/26 04:47:59;;;;;;;3.80;3.20;;;;;;;;;;105054;1302;22525;-30
2022/07/26 04:50:28;;;;;;;3.40;2.60;;;;;;;;;;104986;1308;24776;-25
2022/07/26 04:52:56;;;;;;;10.10;3.00;;;;;;;;;;105093;1308;25359;-24
2022/07/26 04:55:25;;;;;;;5.50;4.20;;;;;;;;;;105021;1302;25311;-29
2022/07/26 04:57:54;;;;;;;10.40;4.90;;;;;;;;;;105145;1308;24913;-29
2022/07/26 05:00:23;;;;;;;7.20;4.80;;;;;;;;;;105059;1308;25359;-25
2022/07/26 05:02:53;;;;;;;5.20;3.40;;;;;;;;;;104881;1304;25285;-29
2022/07/26 05:05:22;;;;;;;7.40;4.90;;;;;;;;;;105118;1308;22570;-24
2022/07/26 05:07:52;;;;;;;8.00;5.20;;;;;;;;;;105120;1302;24863;-28
2022/07/26 05:10:21;;;;;;;7.70;5.20;;;;;;;;;;105075;1302;22533;-25
2022/07/26 05:12:50;;;;;;;13.50;4.50;;;;;;;;;;105157;1302;22506;-25
2022/07/26 05:15:19;;;;;;;6.20;3.60;;;;;;;;;;104989;1302;22512;-29
2022/07/26 05:17:48;;;;;;;10.10;4.30;;;;;;;;;;105154;1302;24538;-30
2022/07/26 05:20:17;;;;;;;5.30;4.30;;;;;;;;;;105102;1308;22529;-24
2022/07/26 05:22:46;;;;;;;7.40;4.70;;;;;;;;;;104884;1304;25188;-24
2022/07/26 05:25:14;;;;;;;7.60;6.30;;;;;;;;;;105127;1308;25241;-30
2022/07/26 05:27:43;;;;;;;6.80;5.50;;;;;;;;;;105030;1302;25203;-29
2022/07/26 05:30:12;;;;;;;10.20;6.70;;;;;;;;;;105021;1308;25212;-25
2022/07/26 05:32:41;;;;;;;20.90;5.20;;;;;;;;;;104975;1302;22520;-32
2022/07/26 05:35:10;;;;;;;7.80;6.20;;;;;;;;;;105135;1308;22536;-31
2022/07/26 05:37:39;;;;;;;6.40;3.60;;;;;;;;;;105167;1302;25339;-30
2022/07/26 05:40:09;;;;;;;5.50;4.00;;;;;;;;;;104983;1302;24795;-29
2022/07/26 05:42:37;;;;;;;13.50;7.70;;;;;;;;;;104906;1305;25212;-24
2022/07/26 05:45:06;;;;;;;5.30;4.30;;;;;;;;;;105122;1286;24039;-25
2022/07/26 05:47:36;;;;;;;4.10;3.10;;;;;;;;;;105095;1302;25295;-30
2022/07/26 05:50:05;;;;;;;7.50;6.60;;;;;;;;;;104840;1308;25296;-26
2022/07/26 05:52:34;;;;;;;9.10;7.10;;;;;;;;;;104827;1302;396951;-29
2022/07/26 05:55:03;;;;;;;9.70;5.60;;;;;;;;;;105145;1302;24452;-24
2022/07/26 05:57:32;;;;;;;11.10;6.70;;;;;;;;;;105195;1302;22626;-24
2022/07/26 06:00:01;;;;;;;9.30;6.30;;;;;;;;;;104986;1308;25269;-25
2022/07/26 06:02:30;;;;;;;6.20;4.70;;;;;;;;;;105088;1308;25285;-22
2022/07/26 06:04:59;;;;;;;9.70;4.70;;;;;;;;;;105232;1308;25302;-24
2022/07/26 06:07:28;;;;;;;7.90;6.50;;;;;;;;;;104986;1308;22701;-30
2022/07/26 06:09:57;;;;;;;9.10;5.90;;;;;;;;;;104965;1308;22451;-24
2022/07/26 06:12:26;;;;;;;10.90;5.90;;;;;;;;;;105205;1308;25270;-31
2022/07/26 06:14:55;;;;;;;14.10;6.90;;;;;;;;;;105190;1302;22625;-24
2022/07/26 06:17:28;;;;;;;24.70;7.80;;;;;;;;;;105065;1308;25353;-24
2022/07/26 06:19:57;;;;;;;;;;;;;;;;;;105164;1302;25241;-26
2022/07/26 06:22:26;;;;;;;12.60;8.30;;;;;;;;;;105117;1308;25242;-25
2022/07/26 06:24:55;;;;;;;11.90;7.00;;;;;;;;;;105141;1302;22562;-29
2022/07/26 06:27:23;;;;;;;11.20;6.80;;;;;;;;;;105164;1308;25328;-24
2022/07/26 06:29:53;;;;;;;9.20;7.30;;;;;;;;;;105042;1302;24910;-24
2022/07/26 06:32:22;;;;;;;10.10;7.20;;;;;;;;;;105040;1308;22453;-29
2022/07/26 06:34:51;;;;;;;10.10;7.40;;;;;;;;;;104422;1302;1003889;-30
2022/07/26 06:37:20;;;;;;;11.10;7.00;;;;;;;;;;105247;1308;24330;-25
2022/07/26 06:39:48;;;;;;;12.00;8.10;;;;;;;;;;105186;1303;22623;-30
2022/07/26 06:42:17;;;;;;;7.80;5.70;;;;;;;;;;105216;1308;22553;-28
2022/07/26 06:44:46;;;;;;;9.30;7.40;;;;;;;;;;105050;1302;25232;-26
2022/07/26 06:47:15;;;;;;;9.70;5.90;;;;;;;;;;105123;1308;25228;-25
2022/07/26 06:49:44;;;;;;;8.20;7.40;;;;;;;;;;105074;1302;22631;-30
2022/07/26 06:52:13;;;;;;;7.20;5.20;;;;;;;;;;105006;1308;22531;-25
2022/07/26 06:54:42;;;;;;;14.00;9.50;;;;;;;;;;105140;1302;26473;-30
2022/07/26 06:57:10;;;;;;;11.30;9.80;;;;;;;;;;104962;1302;25247;-26
2022/07/26 06:59:39;;;;;;;9.90;8.60;;;;;;;;;;105051;1302;22503;-26
2022/07/26 07:02:08;;;;;;;18.70;9.00;;;;;;;;;;105262;1308;22499;-27
2022/07/26 07:04:37;;;;;;;9.00;7.80;;;;;;;;;;105073;1308;22698;-30
2022/07/26 07:07:07;;;;;;;15.20;9.10;;;;;;;;;;105122;1308;25446;-23
2022/07/26 07:09:36;;;;;;;9.20;8.30;;;;;;;;;;105227;1308;22520;-25
2022/07/26 07:12:05;;;;;;;13.60;10.80;;;;;;;;;;105188;1308;22502;-29
2022/07/26 07:14:34;;;;;;;15.10;11.00;;;;;;;;;;105027;1302;22507;-31
2022/07/26 07:17:03;;;;;;;11.50;9.30;;;;;;;;;;105090;1308;22513;-28
2022/07/26 07:19:33;;;;;;;9.90;8.90;;;;;;;;;;105084;1302;22520;-24
2022/07/26 07:22:02;;;;;;;11.50;9.10;;;;;;;;;;105056;1302;25219;-28
2022/07/26 07:24:31;;;;;;;12.50;9.50;;;;;;;;;;105069;1302;24539;-25
2022/07/26 07:27:00;;;;;;;11.80;10.30;;;;;;;;;;104935;1308;25204;-26
2022/07/26 07:29:29;;;;;;;11.00;8.90;;;;;;;;;;105005;1302;22567;-29
2022/07/26 07:31:58;;;;;;;10.30;9.20;;;;;;;;;;105057;1307;25268;-24
2022/07/26 07:34:27;;;;;;;13.80;8.10;;;;;;;;;;105145;1302;22526;-29
2022/07/26 07:36:56;;;;;;;10.20;9.10;;;;;;;;;;105210;1302;22527;-29
2022/07/26 07:39:24;;;;;;;12.50;9.40;;;;;;;;;;105006;1302;25240;-29
2022/07/26 07:41:53;;;;;;;13.30;8.60;;;;;;;;;;105078;1308;25232;-31
2022/07/26 07:44:22;;;;;;;10.90;7.10;;;;;;;;;;105052;1302;22557;-24
2022/07/26 07:46:51;;;;;;;15.00;9.20;;;;;;;;;;105194;1308;22506;-29
2022/07/26 07:49:21;;;;;;;11.20;8.80;;;;;;;;;;105175;1302;25296;-26
2022/07/26 07:51:49;;;;;;;7.30;6.50;;;;;;;;;;105121;1308;22516;-29
2022/07/26 07:54:18;;;;;;;9.80;8.80;;;;;;;;;;105148;1302;22519;-29
2022/07/26 07:56:47;;;;;;;11.90;10.40;;;;;;;;;;105072;1302;22454;-25
2022/07/26 07:59:16;;;;;;;14.90;11.30;;;;;;;;;;105099;1307;25280;-31
2022/07/26 08:01:45;;;;;;;13.00;11.20;;;;;;;;;;104939;1307;22516;-26
2022/07/26 08:04:14;;;;;;;11.90;9.20;;;;;;;;;;105073;1302;25193;-24
2022/07/26 08:06:43;;;;;;;16.30;10.20;;;;;;;;;;104999;1308;25206;-31
2022/07/26 08:09:12;;;;;;;11.70;10.40;;;;;;;;;;105181;1302;25347;-31
2022/07/26 08:11:41;;;;;;;5.30;4.50;;;;;;;;;;105305;1308;25241;-24
2022/07/26 08:14:09;;;;;;;10.60;9.30;;;;;;;;;;105104;1302;25213;-29
2022/07/26 08:16:38;;;;;;;11.00;8.40;;;;;;;;;;105079;1306;25202;-31
2022/07/26 08:19:07;;;;;;;9.50;8.00;;;;;;;;;;104977;1302;24529;-31
2022/07/26 08:21:36;;;;;;;15.90;10.50;;;;;;;;;;105205;1308;25305;-26
2022/07/26 08:24:05;;;;;;;9.00;8.10;;;;;;;;;;105057;1302;24826;-29
2022/07/26 08:26:34;;;;;;;7.70;6.50;;;;;;;;;;105086;1308;25201;-26
2022/07/26 08:29:03;;;;;;;6.50;4.90;;;;;;;;;;105160;1302;25241;-23
2022/07/26 08:31:32;;;;;;;8.40;6.60;;;;;;;;;;104932;1308;22538;-24
2022/07/26 08:34:00;;;;;;;4.60;4.00;;;;;;;;;;105141;1302;22519;-26
2022/07/26 08:36:29;;;;;;;8.10;5.30;;;;;;;;;;105111;1308;22535;-29
2022/07/26 08:38:58;;;;;;;6.10;5.60;;;;;;;;;;105014;1302;22533;-29
2022/07/26 08:41:27;;;;;;;5.40;4.60;;;;;;;;;;105116;1308;22445;-28
2022/07/26 08:44:03;;;;;;;6.70;5.50;;;;;;;;;;105122;1308;25295;-24
2022/07/26 08:46:33;;;;;;;7.70;4.80;;;;;;;;;;105102;1302;25259;-30
2022/07/26 08:49:02;;;;;;;6.00;5.50;;;;;;;;;;105038;1301;24759;-26
2022/07/26 08:51:31;;;;;;;6.80;3.50;;;;;;;;;;105005;1308;24625;-25
2022/07/26 08:54:00;;;;;;;3.80;3.30;;;;;;;;;;105096;1302;25203;-26
2022/07/26 08:56:29;;;;;;;6.20;5.00;;;;;;;;;;105299;1308;25257;-29
2022/07/26 08:58:58;;;;;;;5.90;3.90;;;;;;;;;;105152;1308;24860;-29
2022/07/26 09:01:27;;;;;;;4.60;3.10;;;;;;;;;;105078;1308;24872;-24
2022/07/26 09:03:55;;;;;;;5.30;4.70;;;;;;;;;;104777;1308;24429;-25
2022/07/26 09:06:24;;;;;;;4.50;3.80;;;;;;;;;;105041;1308;24456;-31
2022/07/26 09:08:53;;;;;;;5.00;4.50;;;;;;;;;;105126;1301;25225;-25
2022/07/26 09:11:22;;;;;;;5.60;4.40;;;;;;;;;;105168;1308;24832;-24
2022/07/26 09:13:52;;;;;;;7.50;4.90;;;;;;;;;;105143;1302;22629;-28
2022/07/26 09:16:21;;;;;;;4.40;4.00;;;;;;;;;;105060;1302;22612;-25
2022/07/26 09:18:50;;;;;;;4.90;4.40;;;;;;;;;;105151;1302;25251;-27
2022/07/26 09:21:22;;;;;;;9.80;4.70;;;;;;;;;;105101;1308;25232;-29
2022/07/26 09:23:51;;;;;;;4.70;3.90;;;;;;;;;;105139;1302;24457;-29
2022/07/26 09:26:20;;;;;;;5.00;3.70;;;;;;;;;;105128;1308;22529;-29
2022/07/26 09:28:52;;;;;;;8.10;4.40;;;;;;;;;;105158;1302;25267;-31
2022/07/26 09:31:21;;;;;;;3.40;3.10;;;;;;;;;;105081;1302;24771;-29
2022/07/26 09:33:50;;;;;;;4.10;3.00;;;;;;;;;;105272;1302;24880;-30
2022/07/26 09:36:20;;;;;;;4.10;3.50;;;;;;;;;;105165;1308;25247;-26
2022/07/26 09:38:50;;;;;;;5.10;2.60;;;;;;;;;;105134;1302;22538;-25
2022/07/26 09:41:20;;;;;;;6.00;3.60;;;;;;;;;;105012;1302;24740;-25
2022/07/26 09:43:49;;;;;;;3.40;2.50;;;;;;;;;;105089;1302;25187;-29
2022/07/26 09:46:18;;;;;;;5.80;3.90;;;;;;;;;;105136;1308;25315;-25
2022/07/26 09:48:47;;;;;;;3.00;2.60;;;;;;;;;;105092;1302;25225;-31
2022/07/26 09:51:16;;;;;;;2.50;2.20;;;;;;;;;;105163;1308;22985;-25
2022/07/26 09:53:45;;;;;;;3.60;3.00;;;;;;;;;;104994;1302;22539;-25
2022/07/26 09:56:14;;;;;;;5.50;2.70;;;;;;;;;;105033;1308;25367;-25
2022/07/26 09:58:43;;;;;;;6.30;2.70;;;;;;;;;;104980;1302;22623;-27
2022/07/26 10:01:12;;;;;;;3.90;3.00;;;;;;;;;;105158;1308;22551;-29
2022/07/26 10:03:41;;;;;;;2.70;2.40;;;;;;;;;;104965;1302;25204;-29
2022/07/26 10:06:10;;;;;;;5.50;3.50;;;;;;;;;;105044;1308;25327;-25
2022/07/26 10:08:39;;;;;;;4.50;3.70;;;;;;;;;;105087;1302;25490;-31
2022/07/26 10:11:07;;;;;;;2.80;2.50;;;;;;;;;;105185;1308;22940;-27
2022/07/26 10:13:37;;;;;;;4.60;3.10;;;;;;;;;;105142;1302;25318;-30
2022/07/26 10:16:06;;;;;;;11.40;3.00;;;;;;;;;;105015;1301;22555;-25
2022/07/26 10:18:35;;;;;;;4.70;3.10;;;;;;;;;;105063;1308;22523;-29
2022/07/26 10:21:07;;;;;;;6.00;3.40;;;;;;;;;;105213;1302;25264;-25
2022/07/26 10:23:38;;;;;;;2.80;2.50;;;;;;;;;;105057;1302;25353;-29
2022/07/26 10:26:08;;;;;;;5.90;2.70;;;;;;;;;;104797;1304;23840;-29
2022/07/26 10:28:37;;;;;;;2.70;2.40;;;;;;;;;;105323;1308;25241;-24
2022/07/26 10:31:09;;;;;;;5.30;2.10;;;;;;;;;;105104;1308;25241;-29
2022/07/26 10:33:41;;;;;;;11.50;5.20;;;;;;;;;;105124;1302;24503;-31
2022/07/26 10:36:13;;;;;;;3.80;2.60;;;;;;;;;;104398;1302;1002845;-26
2022/07/26 10:38:42;;;;;;;4.60;2.20;;;;;;;;;;105096;1308;22530;-29
2022/07/26 10:41:11;;;;;;;2.10;1.60;;;;;;;;;;105035;1308;25232;-29
2022/07/26 10:43:39;;;;;;;2.80;2.20;;;;;;;;;;105033;1302;22536;-25
2022/07/26 10:46:12;;;;;;;4.10;2.50;;;;;;;;;;104961;1308;25204;-27
2022/07/26 10:48:44;;;;;;;2.90;2.40;;;;;;;;;;105004;1302;24973;-29
2022/07/26 10:51:16;;;;;;;2.50;2.10;;;;;;;;;;105158;1302;22523;-25
2022/07/26 10:53:56;;;;;;;1.80;1.50;;;;;;;;;;105306;1302;24705;-27
2022/07/26 10:56:25;;;;;;;3.60;2.00;;;;;;;;;;105156;1302;22519;-29
2022/07/26 10:58:54;;;;;;;8.90;2.30;;;;;;;;;;104984;1302;25295;-29
2022/07/26 11:01:27;;;;;;;6.60;2.40;;;;;;;;;;105011;1308;24647;-31
2022/07/26 11:03:56;;;;;;;3.50;1.90;;;;;;;;;;105039;1308;22844;-25
2022/07/26 11:06:26;;;;;;;4.80;1.80;;;;;;;;;;105046;1308;25205;-25
2022/07/26 11:08:55;;;;;;;1.20;1.10;;;;;;;;;;105099;1302;25213;-25
2022/07/26 11:11:27;;;;;;;4.40;1.80;;;;;;;;;;105216;1302;24884;-29
2022/07/26 11:13:59;;;;;;;2.00;1.00;;;;;;;;;;105133;1302;25355;-25
2022/07/26 11:16:28;;;;;;;1.50;1.00;;;;;;;;;;104926;1302;22519;-29
2022/07/26 11:18:57;;;;;;;1.60;0.90;;;;;;;;;;105120;1308;25204;-31
2022/07/26 11:21:26;;;;;;;4.70;1.40;;;;;;;;;;105203;1308;24308;-27
2022/07/26 11:23:56;;;;;;;9.20;1.50;;;;;;;;;;105089;1302;25235;-31
2022/07/26 11:26:24;;;;;;;3.40;1.60;;;;;;;;;;105140;1302;25206;-25
2022/07/26 11:28:55;;;;;;;3.60;1.90;;;;;;;;;;104912;1302;25203;-24
2022/07/26 11:31:25;;;;;;;3.00;1.50;;;;;;;;;;105098;1302;25289;-25
2022/07/26 11:33:54;;;;;;;1.40;1.30;;;;;;;;;;105266;1302;22510;-26
2022/07/26 11:36:27;;;;;;;2.40;1.40;;;;;;;;;;105056;1308;25207;-29
2022/07/26 11:38:55;;;;;;;18.70;1.40;;;;;;;;;;105170;1302;25395;-26
2022/07/26 11:41:25;;;;;;;3.10;1.50;;;;;;;;;;105127;1308;24894;-28
2022/07/26 11:43:55;;;;;;;3.10;2.90;;;;;;;;;;105148;1302;24901;-25
2022/07/26 11:46:27;;;;;;;2.30;1.60;;;;;;;;;;105077;1308;25244;-27
2022/07/26 11:48:56;;;;;;;3.20;1.80;;;;;;;;;;105143;1302;22522;-29
2022/07/26 11:51:24;;;;;;;2.30;1.70;;;;;;;;;;105023;1308;25220;-27
2022/07/26 11:53:58;;;;;;;5.40;1.90;;;;;;;;;;105119;1302;24563;-31
2022/07/26 11:56:29;;;;;;;3.40;1.40;;;;;;;;;;105151;1303;24342;-27
2022/07/26 11:58:58;;;;;;;4.20;1.20;;;;;;;;;;104972;1302;22534;-31
2022/07/26 12:01:27;;;;;;;4.10;1.90;;;;;;;;;;105178;1308;25245;-27
2022/07/26 12:03:56;;;;;;;2.50;1.60;;;;;;;;;;105170;1308;25426;-23
2022/07/26 12:06:25;;;;;;;8.70;3.00;;;;;;;;;;105126;1308;22502;-31
2022/07/26 12:08:55;;;;;;;2.30;1.70;;;;;;;;;;105019;1302;25354;-25
2022/07/26 12:11:25;;;;;;;1.60;1.20;;;;;;;;;;105051;1308;25350;-30
2022/07/26 12:13:55;;;;;;;2.20;1.30;;;;;;;;;;105243;1302;24535;-30
2022/07/26 12:16:27;;;;;;;2.70;1.30;;;;;;;;;;105066;1302;24802;-30
2022/07/26 12:18:56;;;;;;;2.20;1.30;;;;;;;;;;104820;1302;25207;-30
2022/07/26 12:21:28;;;;;;;6.40;2.00;;;;;;;;;;105090;1308;25256;-29
2022/07/26 12:23:57;;;;;;;2.00;1.40;;;;;;;;;;105242;1308;22523;-30
2022/07/26 12:26:27;;;;;;;2.80;0.90;;;;;;;;;;105058;1308;25232;-26
2022/07/26 12:28:56;;;;;;;5.30;1.80;;;;;;;;;;105207;1307;25232;-29
2022/07/26 12:31:25;;;;;;;16.80;1.80;;;;;;;;;;105098;1308;24555;-29
2022/07/26 12:33:54;;;;;;;3.80;1.30;;;;;;;;;;105155;1302;25255;-29
2022/07/26 12:36:23;;;;;;;1.70;0.90;;;;;;;;;;105069;1308;22527;-26
2022/07/26 12:38:52;;;;;;;3.10;1.40;;;;;;;;;;105016;1303;25210;-29
2022/07/26 12:41:24;;;;;;;2.20;1.10;;;;;;;;;;105080;1301;22523;-30
2022/07/26 12:43:53;;;;;;;1.70;0.90;;;;;;;;;;105106;1302;24417;-29
2022/07/26 12:46:22;;;;;;;13.40;1.50;;;;;;;;;;105035;1308;22530;-28
2022/07/26 12:48:51;;;;;;;4.90;3.00;;;;;;;;;;105090;1303;25245;-30
2022/07/26 12:51:20;;;;;;;3.70;1.40;;;;;;;;;;105079;1302;25334;-31
2022/07/26 12:53:48;;;;;;;3.20;1.20;;;;;;;;;;105217;1302;25407;-29
2022/07/26 12:56:17;;;;;;;3.10;1.30;;;;;;;;;;105102;1308;22455;-31
2022/07/26 12:58:46;;;;;;;2.60;1.40;;;;;;;;;;105014;1302;25286;-29
2022/07/26 13:01:15;;;;;;;1.40;1.00;;;;;;;;;;104788;1308;22551;-29
2022/07/26 13:03:44;;;;;;;2.20;1.10;;;;;;;;;;105289;1301;24937;-29
2022/07/26 13:06:13;;;;;;;5.60;1.40;;;;;;;;;;105140;1308;25302;-26
2022/07/26 13:08:41;;;;;;;2.60;1.40;;;;;;;;;;105032;1302;22641;-30
2022/07/26 13:11:10;;;;;;;10.30;1.60;;;;;;;;;;105166;1308;22539;-26
2022/07/26 13:13:39;;;;;;;5.40;1.30;;;;;;;;;;105099;1302;22535;-29
2022/07/26 13:16:08;;;;;;;2.70;1.20;;;;;;;;;;105142;1308;25239;-25
2022/07/26 13:18:37;;;;;;;4.10;1.10;;;;;;;;;;105186;1308;25352;-29
2022/07/26 13:21:06;;;;;;;3.90;1.30;;;;;;;;;;105067;1308;25353;-29
2022/07/26 13:23:34;;;;;;;8.10;1.10;;;;;;;;;;105038;1302;22534;-31
2022/07/26 13:26:03;;;;;;;2.90;1.20;;;;;;;;;;105126;1308;25204;-31
2022/07/26 13:28:32;;;;;;;1.40;1.00;;;;;;;;;;105186;1302;25526;-29
2022/07/26 13:31:01;;;;;;;1.90;0.90;;;;;;;;;;105179;1302;22527;-25
2022/07/26 13:33:30;;;;;;;2.30;0.80;;;;;;;;;;105205;1302;22519;-29
2022/07/26 13:35:59;;;;;;;4.40;1.10;;;;;;;;;;105256;1308;25199;-29
2022/07/26 13:38:32;;;;;;;2.70;1.20;;;;;;;;;;105009;1302;24860;-25
2022/07/26 13:41:01;;;;;;;2.70;1.40;;;;;;;;;;105011;1302;24414;-29
2022/07/26 13:43:30;;;;;;;2.90;0.80;;;;;;;;;;105090;1302;24375;-25
2022/07/26 13:45:59;;;;;;;3.70;1.30;;;;;;;;;;105014;1308;25207;-29
2022/07/26 13:48:27;;;;;;;2.10;0.90;;;;;;;;;;105242;1303;25193;-24
2022/07/26 13:50:56;;;;;;;1.60;1.00;;;;;;;;;;104792;1308;366092;-25
2022/07/26 13:53:25;;;;;;;3.40;1.00;;;;;;;;;;105064;1302;24359;-29
2022/07/26 13:55:54;;;;;;;3.30;1.50;;;;;;;;;;105127;1308;25330;-30
2022/07/26 13:58:23;;;;;;;4.60;1.00;;;;;;;;;;104912;1305;25235;-26
2022/07/26 14:00:52;;;;;;;5.10;1.30;;;;;;;;;;105098;1308;25229;-29
2022/07/26 14:03:21;;;;;;;2.20;1.20;;;;;;;;;;105138;1302;25239;-25
2022/07/26 14:05:50;;;;;;;1.60;1.30;;;;;;;;;;105101;1308;22841;-24
2022/07/26 14:08:28;;;;;;;2.30;1.50;;;;;;;;;;105064;1308;25188;-29
2022/07/26 14:11:05;;;;;;;3.40;1.60;;;;;;;;;;105218;1302;24810;-26
2022/07/26 14:13:42;;;;;;;2.40;1.70;;;;;;;;;;105009;1308;25241;-29
2022/07/26 14:16:11;;;;;;;4.10;1.50;;;;;;;;;;105103;1308;22557;-26
2022/07/26 14:18:40;;;;;;;3.20;1.60;;;;;;;;;;105057;1302;25256;-29
2022/07/26 14:21:09;;;;;;;5.30;1.20;;;;;;;;;;105140;1308;22538;-30
2022/07/26 14:23:38;;;;;;;7.50;1.50;;;;;;;;;;105091;1308;25232;-25
2022/07/26 14:26:07;;;;;;;2.00;1.50;;;;;;;;;;105102;1308;25229;-26
2022/07/26 14:28:36;;;;;;;2.40;1.10;;;;;;;;;;105127;1308;22523;-25
2022/07/26 14:31:05;;;;;;;9.10;1.40;;;;;;;;;;105061;1308;22519;-29
2022/07/26 14:33:34;;;;;;;3.90;1.70;;;;;;;;;;105127;1303;22523;-30
2022/07/26 14:36:03;;;;;;;3.70;1.30;;;;;;;;;;105183;1302;25213;-28
2022/07/26 14:38:31;;;;;;;2.20;1.20;;;;;;;;;;104985;1302;24511;-29
2022/07/26 14:41:09;;;;;;;1.40;0.90;;;;;;;;;;105128;1308;25226;-27
2022/07/26 14:43:41;;;;;;;1.80;1.50;;;;;;;;;;105088;1308;25255;-27